Time,TemperatureF,DewpointF,PressureIn,WindDirection,WindDirectionDegrees,WindSpeedMPH,WindSpeedGustMPH,Humidity,HourlyPrecipIn,Conditions,Clouds,dailyrainin,SoftwareType,DateUTC
2013-05-28 00:03:00,41.0,38.0,30.19,ENE,73,0.0,2.0,89,0.00,,,0.00,,2013-05-28 04:03:00,
2013-05-28 00:13:00,41.0,38.0,30.19,ENE,73,0.0,2.0,89,0.00,,,0.00,,2013-05-28 04:13:00,
2013-05-28 00:22:00,41.0,38.0,30.19,ENE,73,0.0,2.0,90,0.00,,,0.00,,2013-05-28 04:22:00,
2013-05-28 00:33:00,40.0,37.0,30.19,ENE,73,0.0,1.0,90,0.00,,,0.00,,2013-05-28 04:33:00,
2013-05-28 00:43:00,40.0,37.0,30.19,ENE,73,0.0,1.0,90,0.00,,,0.00,,2013-05-28 04:43:00,
2013-05-28 00:52:00,40.0,38.0,30.19,ENE,73,0.0,0.0,91,0.00,,,0.00,,2013-05-28 04:52:00,
2013-05-28 01:02:00,40.0,38.0,30.20,ENE,73,0.0,2.0,91,0.00,,,0.00,,2013-05-28 05:02:00,
2013-05-28 01:12:00,40.0,38.0,30.20,ENE,73,0.0,2.0,91,0.00,,,0.00,,2013-05-28 05:12:00,
2013-05-28 01:22:00,39.0,37.0,30.19,ENE,73,0.0,0.0,91,0.00,,,0.00,,2013-05-28 05:22:00,
2013-05-28 01:33:00,39.0,37.0,30.20,ENE,73,0.0,1.0,92,0.00,,,0.00,,2013-05-28 05:33:00,
2013-05-28 01:42:00,39.0,37.0,30.20,ENE,73,0.0,1.0,92,0.00,,,0.00,,2013-05-28 05:42:00,
2013-05-28 01:52:00,38.0,36.0,30.20,ENE,73,0.0,0.0,92,0.00,,,0.00,,2013-05-28 05:52:00,
2013-05-28 02:02:00,38.0,36.0,30.20,ENE,73,0.0,1.0,92,0.00,,,0.00,,2013-05-28 06:02:00,
2013-05-28 02:12:00,38.0,36.0,30.20,ENE,73,0.0,1.0,92,0.00,,,0.00,,2013-05-28 06:12:00,
2013-05-28 02:22:00,37.0,35.0,30.20,ENE,73,0.0,1.0,92,0.00,,,0.00,,2013-05-28 06:22:00,
2013-05-28 02:32:00,37.0,35.0,30.20,ENE,73,0.0,1.0,93,0.00,,,0.00,,2013-05-28 06:32:00,
2013-05-28 02:42:00,37.0,35.0,30.20,ENE,73,0.0,1.0,93,0.00,,,0.00,,2013-05-28 06:42:00,
2013-05-28 02:52:00,37.0,35.0,30.20,ENE,73,0.0,1.0,93,0.00,,,0.00,,2013-05-28 06:52:00,
2013-05-28 03:02:00,37.0,35.0,30.19,ENE,73,0.0,2.0,93,0.00,,,0.00,,2013-05-28 07:02:00,
2013-05-28 03:11:00,37.0,35.0,30.19,ENE,73,0.0,2.0,93,0.00,,,0.00,,2013-05-28 07:11:00,
2013-05-28 03:22:00,37.0,35.0,30.19,ENE,73,0.0,0.0,93,0.00,,,0.00,,2013-05-28 07:22:00,
2013-05-28 03:32:00,36.0,34.0,30.19,ENE,73,0.0,1.0,93,0.00,,,0.00,,2013-05-28 07:32:00,
2013-05-28 03:42:00,36.0,34.0,30.19,ENE,73,0.0,1.0,93,0.00,,,0.00,,2013-05-28 07:42:00,
2013-05-28 03:52:00,36.0,34.0,30.19,ENE,73,0.0,0.0,93,0.00,,,0.00,,2013-05-28 07:52:00,
2013-05-28 04:02:00,36.0,34.0,30.18,ENE,73,0.0,0.0,94,0.00,,,0.00,,2013-05-28 08:02:00,
2013-05-28 04:12:00,36.0,34.0,30.18,ENE,73,0.0,0.0,94,0.00,,,0.00,,2013-05-28 08:12:00,
2013-05-28 04:22:00,36.0,34.0,30.19,ENE,73,0.0,0.0,94,0.00,,,0.00,,2013-05-28 08:22:00,
2013-05-28 04:32:00,36.0,34.0,30.18,ENE,73,0.0,0.0,94,0.00,,,0.00,,2013-05-28 08:32:00,
2013-05-28 04:42:00,36.0,34.0,30.18,ENE,73,0.0,0.0,94,0.00,,,0.00,,2013-05-28 08:42:00,
2013-05-28 04:52:00,36.0,34.0,30.19,East,80,0.0,3.0,94,0.00,,,0.00,,2013-05-28 08:52:00,
2013-05-28 05:01:00,36.0,34.0,30.19,East,80,0.0,2.0,94,0.00,,,0.00,,2013-05-28 09:01:00,
2013-05-28 05:11:00,36.0,34.0,30.19,East,80,0.0,2.0,94,0.00,,,0.00,,2013-05-28 09:11:00,
2013-05-28 05:21:00,36.0,34.0,30.18,East,80,0.0,2.0,94,0.00,,,0.00,,2013-05-28 09:21:00,
2013-05-28 05:33:00,35.0,33.0,30.19,East,80,0.0,1.0,94,0.00,,,0.00,,2013-05-28 09:33:00,
2013-05-28 05:43:00,35.0,33.0,30.19,East,80,0.0,1.0,94,0.00,,,0.00,,2013-05-28 09:43:00,
2013-05-28 05:53:00,35.0,33.0,30.19,East,80,0.0,0.0,94,0.00,,,0.00,,2013-05-28 09:53:00,
2013-05-28 06:03:00,35.0,33.0,30.19,East,80,0.0,0.0,94,0.00,,,0.00,,2013-05-28 10:03:00,
2013-05-28 06:12:00,35.0,33.0,30.19,East,80,0.0,0.0,94,0.00,,,0.00,,2013-05-28 10:12:00,
2013-05-28 06:23:00,35.0,33.0,30.19,East,80,0.0,0.0,94,0.00,,,0.00,,2013-05-28 10:23:00,
2013-05-28 06:32:00,35.0,34.0,30.19,East,80,0.0,2.0,95,0.00,,,0.00,,2013-05-28 10:32:00,
2013-05-28 06:43:00,35.0,34.0,30.19,East,80,0.0,2.0,95,0.00,,,0.00,,2013-05-28 10:43:00,
2013-05-28 06:53:00,36.0,35.0,30.19,East,80,0.0,0.0,95,0.00,,,0.00,,2013-05-28 10:53:00,
2013-05-28 07:02:00,37.0,35.0,30.19,East,80,0.0,0.0,94,0.00,,,0.00,,2013-05-28 11:02:00,
2013-05-28 07:12:00,37.0,35.0,30.19,East,80,0.0,0.0,94,0.00,,,0.00,,2013-05-28 11:12:00,
2013-05-28 07:22:00,38.0,36.0,30.19,East,80,0.0,2.0,93,0.00,,,0.00,,2013-05-28 11:22:00,
2013-05-28 07:32:00,39.0,37.0,30.19,East,80,0.0,1.0,92,0.00,,,0.00,,2013-05-28 11:32:00,
2013-05-28 07:42:00,39.0,37.0,30.19,East,80,0.0,1.0,92,0.00,,,0.00,,2013-05-28 11:42:00,
2013-05-28 07:52:00,41.0,38.0,30.18,East,80,0.0,2.0,90,0.00,,,0.00,,2013-05-28 11:52:00,
2013-05-28 08:02:00,44.0,40.0,30.18,East,80,0.0,2.0,85,0.00,,,0.00,,2013-05-28 12:02:00,
2013-05-28 08:11:00,44.0,40.0,30.18,East,80,0.0,2.0,85,0.00,,,0.00,,2013-05-28 12:11:00,
2013-05-28 08:22:00,46.0,41.0,30.18,East,80,0.0,1.0,81,0.00,,,0.00,,2013-05-28 12:22:00,
2013-05-28 08:32:00,49.0,41.0,30.17,East,80,0.0,2.0,75,0.00,,,0.00,,2013-05-28 12:32:00,
2013-05-28 08:42:00,49.0,41.0,30.17,East,80,0.0,2.0,75,0.00,,,0.00,,2013-05-28 12:42:00,
2013-05-28 08:52:00,51.0,42.0,30.16,East,80,0.0,2.0,70,0.00,,,0.00,,2013-05-28 12:52:00,
2013-05-28 09:01:00,54.0,44.0,30.16,NW,307,0.0,3.0,68,0.00,,,0.00,,2013-05-28 13:01:00,
2013-05-28 09:11:00,54.0,44.0,30.16,NW,307,0.0,3.0,68,0.00,,,0.00,,2013-05-28 13:11:00,
2013-05-28 09:22:00,56.0,43.0,30.16,NW,311,1.0,3.0,62,0.00,,,0.00,,2013-05-28 13:22:00,
2013-05-28 09:32:00,60.0,39.0,30.16,SSE,161,3.0,8.0,45,0.00,,,0.00,,2013-05-28 13:32:00,
2013-05-28 09:42:00,60.0,39.0,30.16,SSE,161,3.0,8.0,45,0.00,,,0.00,,2013-05-28 13:42:00,
2013-05-28 09:52:00,63.0,38.0,30.16,SSE,158,2.0,7.0,40,0.00,,,0.00,,2013-05-28 13:52:00,
2013-05-28 10:02:00,64.0,39.0,30.16,South,174,2.0,8.0,39,0.00,,,0.00,,2013-05-28 14:02:00,
2013-05-28 10:12:00,64.0,39.0,30.16,South,174,2.0,8.0,39,0.00,,,0.00,,2013-05-28 14:12:00,
2013-05-28 10:21:00,64.0,37.0,30.16,ESE,115,2.0,6.0,37,0.00,,,0.00,,2013-05-28 14:21:00,
2013-05-28 10:32:00,64.0,37.0,30.16,SSW,208,2.0,7.0,37,0.00,,,0.00,,2013-05-28 14:32:00,
2013-05-28 10:42:00,64.0,37.0,30.16,SSW,208,2.0,7.0,37,0.00,,,0.00,,2013-05-28 14:42:00,
2013-05-28 10:52:00,64.0,37.0,30.16,SE,132,2.0,5.0,37,0.00,,,0.00,,2013-05-28 14:52:00,
2013-05-28 11:01:00,64.0,37.0,30.16,SE,132,2.0,5.0,37,0.00,,,0.00,,2013-05-28 15:01:00,
2013-05-28 11:11:00,64.0,37.0,30.16,SE,132,2.0,5.0,37,0.00,,,0.00,,2013-05-28 15:11:00,
2013-05-28 11:21:00,63.0,38.0,30.16,South,178,2.0,7.0,39,0.00,,,0.00,,2013-05-28 15:21:00,
2013-05-28 11:33:00,63.0,36.0,30.15,East,94,2.0,7.0,36,0.00,,,0.00,,2013-05-28 15:33:00,
2013-05-28 11:43:00,63.0,36.0,30.15,East,94,2.0,7.0,36,0.00,,,0.00,,2013-05-28 15:43:00,
2013-05-28 11:52:00,64.0,37.0,30.16,ESE,121,1.0,9.0,36,0.00,,,0.00,,2013-05-28 15:52:00,
2013-05-28 12:03:00,64.0,37.0,30.16,ESE,123,5.0,9.0,36,0.00,,,0.00,,2013-05-28 16:03:00,
2013-05-28 12:13:00,64.0,37.0,30.16,ESE,123,5.0,9.0,36,0.00,,,0.00,,2013-05-28 16:13:00,
2013-05-28 12:23:00,63.0,35.0,30.16,ESE,105,4.0,10.0,35,0.00,,,0.00,,2013-05-28 16:23:00,
2013-05-28 12:33:00,63.0,36.0,30.16,SE,136,3.0,11.0,37,0.00,,,0.00,,2013-05-28 16:33:00,
2013-05-28 12:42:00,63.0,36.0,30.16,SE,136,3.0,11.0,37,0.00,,,0.00,,2013-05-28 16:42:00,
2013-05-28 12:52:00,63.0,37.0,30.15,SSE,162,3.0,8.0,38,0.00,,,0.00,,2013-05-28 16:52:00,
2013-05-28 13:02:00,63.0,37.0,30.15,ESE,119,3.0,10.0,38,0.00,,,0.00,,2013-05-28 17:02:00,
2013-05-28 13:12:00,63.0,37.0,30.15,ESE,119,3.0,10.0,38,0.00,,,0.00,,2013-05-28 17:12:00,
2013-05-28 13:22:00,63.0,37.0,30.15,ESE,119,3.0,10.0,38,0.00,,,0.00,,2013-05-28 17:22:00,
2013-05-28 13:32:00,63.0,37.0,30.15,South,172,2.0,6.0,38,0.00,,,0.00,,2013-05-28 17:32:00,
2013-05-28 13:42:00,63.0,37.0,30.15,South,172,2.0,6.0,38,0.00,,,0.00,,2013-05-28 17:42:00,
2013-05-28 13:52:00,62.0,37.0,30.15,South,189,2.0,6.0,39,0.00,,,0.00,,2013-05-28 17:52:00,
2013-05-28 14:01:00,62.0,38.0,30.15,SSE,147,2.0,8.0,41,0.00,,,0.00,,2013-05-28 18:01:00,
2013-05-28 14:11:00,62.0,38.0,30.15,SSE,147,2.0,8.0,41,0.00,,,0.00,,2013-05-28 18:11:00,
2013-05-28 14:22:00,62.0,39.0,30.15,SSW,203,2.0,8.0,43,0.00,,,0.00,,2013-05-28 18:22:00,
2013-05-28 14:32:00,61.0,42.0,30.16,SSW,196,1.0,7.0,50,0.00,,,0.00,,2013-05-28 18:32:00,
2013-05-28 14:42:00,61.0,42.0,30.16,SSW,196,1.0,7.0,50,0.00,,,0.00,,2013-05-28 18:42:00,
2013-05-28 14:52:00,59.0,45.0,30.16,South,173,1.0,7.0,59,0.00,,,0.00,,2013-05-28 18:52:00,
2013-05-28 15:01:00,56.0,47.0,30.16,South,169,0.0,5.0,71,0.01,,,0.01,,2013-05-28 19:01:00,
2013-05-28 15:11:00,56.0,47.0,30.16,South,169,0.0,5.0,71,0.01,,,0.01,,2013-05-28 19:11:00,
2013-05-28 15:21:00,55.0,48.0,30.16,SE,136,1.0,3.0,77,0.02,,,0.02,,2013-05-28 19:21:00,
2013-05-28 15:32:00,54.0,49.0,30.16,SSE,150,0.0,3.0,83,0.03,,,0.03,,2013-05-28 19:32:00,
2013-05-28 15:42:00,54.0,49.0,30.16,SSE,150,0.0,3.0,83,0.03,,,0.03,,2013-05-28 19:42:00,
2013-05-28 15:52:00,53.0,49.0,30.15,SSE,154,1.0,6.0,87,0.04,,,0.04,,2013-05-28 19:52:00,
2013-05-28 16:02:00,53.0,50.0,30.14,SE,126,1.0,6.0,88,0.03,,,0.04,,2013-05-28 20:02:00,
2013-05-28 16:11:00,53.0,50.0,30.14,SE,126,1.0,6.0,88,0.03,,,0.04,,2013-05-28 20:11:00,
2013-05-28 16:22:00,53.0,50.0,30.14,SE,126,1.0,6.0,88,0.03,,,0.04,,2013-05-28 20:22:00,
2013-05-28 16:32:00,54.0,51.0,30.13,SE,134,2.0,6.0,89,0.02,,,0.05,,2013-05-28 20:32:00,
2013-05-28 16:42:00,54.0,51.0,30.13,SE,134,2.0,6.0,89,0.02,,,0.05,,2013-05-28 20:42:00,
2013-05-28 16:52:00,55.0,51.0,30.13,ESE,104,4.0,9.0,87,0.01,,,0.05,,2013-05-28 20:52:00,
2013-05-28 17:02:00,55.0,51.0,30.12,SE,129,3.0,5.0,86,0.01,,,0.05,,2013-05-28 21:02:00,
2013-05-28 17:11:00,55.0,51.0,30.12,SE,129,3.0,5.0,86,0.01,,,0.05,,2013-05-28 21:11:00,
2013-05-28 17:22:00,56.0,52.0,30.12,SE,126,3.0,7.0,85,0.01,,,0.05,,2013-05-28 21:22:00,
2013-05-28 17:33:00,56.0,51.0,30.12,South,171,2.0,7.0,84,0.00,,,0.05,,2013-05-28 21:33:00,
2013-05-28 17:43:00,56.0,51.0,30.12,South,171,2.0,7.0,84,0.00,,,0.05,,2013-05-28 21:43:00,
2013-05-28 17:53:00,56.0,51.0,30.13,East,85,5.0,12.0,84,0.00,,,0.05,,2013-05-28 21:53:00,
2013-05-28 18:02:00,55.0,51.0,30.12,East,92,5.0,11.0,85,0.00,,,0.05,,2013-05-28 22:02:00,
2013-05-28 18:13:00,55.0,51.0,30.12,East,92,5.0,11.0,85,0.00,,,0.05,,2013-05-28 22:13:00,
2013-05-28 18:22:00,55.0,51.0,30.12,ENE,60,4.0,12.0,86,0.00,,,0.05,,2013-05-28 22:22:00,
2013-05-28 18:33:00,55.0,51.0,30.12,South,183,3.0,13.0,86,0.00,,,0.05,,2013-05-28 22:33:00,
2013-05-28 18:42:00,55.0,51.0,30.12,SSE,154,2.0,6.0,86,0.00,,,0.05,,2013-05-28 22:42:00,
2013-05-28 18:52:00,55.0,51.0,30.12,SSE,154,2.0,6.0,86,0.00,,,0.05,,2013-05-28 22:52:00,
2013-05-28 19:02:00,55.0,51.0,30.12,SE,131,1.0,6.0,86,0.00,,,0.05,,2013-05-28 23:02:00,
2013-05-28 19:11:00,55.0,51.0,30.12,SE,131,1.0,6.0,86,0.00,,,0.05,,2013-05-28 23:11:00,
2013-05-28 19:22:00,55.0,51.0,30.12,SSE,155,2.0,6.0,86,0.00,,,0.05,,2013-05-28 23:22:00,
2013-05-28 19:32:00,55.0,51.0,30.11,ESE,112,0.0,5.0,87,0.00,,,0.05,,2013-05-28 23:32:00,
2013-05-28 19:42:00,55.0,51.0,30.11,ESE,112,0.0,5.0,87,0.00,,,0.05,,2013-05-28 23:42:00,
2013-05-28 19:52:00,55.0,52.0,30.11,SE,128,2.0,6.0,88,0.00,,,0.05,,2013-05-28 23:52:00,
2013-05-28 20:02:00,54.0,51.0,30.10,East,100,4.0,8.0,88,0.00,,,0.05,,2013-05-29 00:02:00,
2013-05-28 20:11:00,54.0,51.0,30.10,East,100,4.0,8.0,88,0.00,,,0.05,,2013-05-29 00:11:00,
2013-05-28 20:22:00,54.0,51.0,30.10,East,87,4.0,9.0,90,0.00,,,0.05,,2013-05-29 00:22:00,
2013-05-28 20:32:00,54.0,51.0,30.09,East,99,2.0,10.0,90,0.00,,,0.05,,2013-05-29 00:32:00,
2013-05-28 20:42:00,54.0,51.0,30.09,East,99,2.0,10.0,90,0.00,,,0.05,,2013-05-29 00:42:00,
2013-05-28 20:52:00,54.0,51.0,30.09,SE,142,1.0,5.0,90,0.00,,,0.05,,2013-05-29 00:52:00,
2013-05-28 21:01:00,55.0,52.0,30.09,East,90,2.0,8.0,90,0.00,,,0.05,,2013-05-29 01:01:00,
2013-05-28 21:11:00,55.0,52.0,30.09,East,90,2.0,8.0,90,0.00,,,0.05,,2013-05-29 01:11:00,
2013-05-28 21:22:00,55.0,52.0,30.09,East,101,3.0,9.0,89,0.00,,,0.05,,2013-05-29 01:22:00,
2013-05-28 21:32:00,55.0,52.0,30.09,SE,138,1.0,7.0,90,0.00,,,0.05,,2013-05-29 01:32:00,
2013-05-28 21:42:00,55.0,52.0,30.09,SE,138,1.0,7.0,90,0.00,,,0.05,,2013-05-29 01:42:00,
2013-05-28 21:52:00,55.0,52.0,30.09,SE,144,1.0,8.0,89,0.00,,,0.05,,2013-05-29 01:52:00,
2013-05-28 22:02:00,55.0,52.0,30.09,East,88,2.0,6.0,89,0.00,,,0.05,,2013-05-29 02:02:00,
2013-05-28 22:12:00,55.0,52.0,30.09,East,88,2.0,6.0,89,0.00,,,0.05,,2013-05-29 02:12:00,
2013-05-28 22:21:00,55.0,52.0,30.09,SW,223,2.0,8.0,90,0.00,,,0.05,,2013-05-29 02:21:00,
2013-05-28 22:32:00,55.0,52.0,30.09,SE,134,0.0,6.0,90,0.00,,,0.05,,2013-05-29 02:32:00,
2013-05-28 22:42:00,55.0,52.0,30.08,SSE,161,1.0,6.0,90,0.00,,,0.05,,2013-05-29 02:42:00,
2013-05-28 22:51:00,55.0,52.0,30.08,SSE,161,1.0,6.0,90,0.00,,,0.05,,2013-05-29 02:51:00,
2013-05-28 23:02:00,55.0,52.0,30.09,SSE,148,1.0,7.0,90,0.00,,,0.05,,2013-05-29 03:02:00,
2013-05-28 23:12:00,55.0,52.0,30.09,SSE,148,1.0,7.0,90,0.00,,,0.05,,2013-05-29 03:12:00,
2013-05-28 23:22:00,55.0,52.0,30.09,NNW,336,0.0,3.0,91,0.00,,,0.05,,2013-05-29 03:22:00,
2013-05-28 23:33:00,55.0,52.0,30.08,East,94,0.0,6.0,91,0.01,,,0.06,,2013-05-29 03:33:00,
2013-05-28 23:43:00,55.0,52.0,30.08,East,94,0.0,6.0,91,0.01,,,0.06,,2013-05-29 03:43:00,
2013-05-28 23:53:00,55.0,53.0,30.09,SSW,196,0.0,4.0,92,0.01,,,0.06,,2013-05-29 03:53:00,